Time;durP1;ratioP1;P1;durP2;ratioP2;P2;SDS_P1;SDS_P2;PMS_P1;PMS_P2;Temp;Humidity;BMP_temperature;BMP_pressure;BME280_temperature;BME280_humidity;BME280_pressure;Samples;Min_cycle;Max_cycle;Signal;HPM_P1;HPM_P2
2024/03/02 00:02:07;;;;;;;60.28;42.88;;;;;;;7.35;82.18;97144.66;4983076;28;20470;-74
2024/03/02 00:04:33;;;;;;;57.92;40.78;;;;;;;7.26;81.85;97130.09;4981780;28;20034;-75
2024/03/02 00:06:59;;;;;;;61.65;43.58;;;;;;;7.38;81.95;97142.28;4999633;28;20056;-75
2024/03/02 00:09:24;;;;;;;52.45;39.67;;;;;;;7.24;82.10;97124.97;4986055;28;20046;-75
2024/03/02 00:11:50;;;;;;;57.00;41.20;;;;;;;7.32;82.09;97134.44;4979521;28;20498;-74
2024/03/02 00:14:16;;;;;;;56.45;40.67;;;;;;;7.35;81.78;97131.28;4998503;28;20398;-76
2024/03/02 00:16:42;;;;;;;61.60;40.88;;;;;;;7.35;82.15;97128.59;5002124;28;20033;-75
2024/03/02 00:19:08;;;;;;;59.08;42.83;;;;;;;7.28;81.34;97123.41;4966852;28;20030;-75
2024/03/02 00:21:34;;;;;;;60.28;43.72;;;;;;;7.26;81.32;97119.38;4985646;28;20393;-75
2024/03/02 00:24:02;;;;;;;59.35;43.92;;;;;;;7.37;81.56;97126.47;4989401;28;20524;-75
2024/03/02 00:26:29;;;;;;;61.03;43.15;;;;;;;7.34;81.52;97111.72;4972291;28;20505;-75
2024/03/02 00:28:56;;;;;;;54.70;40.35;;;;;;;7.41;82.08;97112.31;4974244;28;20035;-75
2024/03/02 00:31:22;;;;;;;57.13;42.33;;;;;;;7.43;82.31;97125.47;4990687;28;20390;-75
2024/03/02 00:33:49;;;;;;;59.17;43.78;;;;;;;7.51;82.39;97135.75;4977430;28;20041;-75
2024/03/02 00:36:15;;;;;;;56.33;40.63;;;;;;;7.56;82.04;97130.44;4976271;28;20022;-76
2024/03/02 00:38:49;;;;;;;53.65;40.33;;;;;;;7.49;82.03;97119.13;4983468;28;20062;-75
2024/03/02 00:41:28;;;;;;;55.90;40.42;;;;;;;7.53;81.79;97114.88;4988480;28;20034;-75
2024/03/02 00:44:06;;;;;;;59.50;41.75;;;;;;;7.64;82.19;97138.03;4988369;28;20074;-75
2024/03/02 00:46:35;;;;;;;56.30;42.45;;;;;;;7.60;81.34;97131.56;4961030;28;20045;-77
2024/03/02 00:49:26;;;;;;;63.25;45.05;;;;;;;7.60;81.60;97131.56;4976975;28;20077;-75
2024/03/02 00:51:52;;;;;;;64.72;43.92;;;;;;;7.73;81.52;97135.69;4997316;28;20133;-76
2024/03/02 00:54:20;;;;;;;62.45;44.15;;;;;;;7.56;81.91;97103.66;4994113;28;20033;-76
2024/03/02 00:56:47;;;;;;;59.50;44.38;;;;;;;7.60;82.39;97110.13;4977915;28;20039;-76
2024/03/02 00:59:12;;;;;;;59.47;43.13;;;;;;;7.74;82.00;97126.59;4978908;28;20470;-75
2024/03/02 01:01:38;;;;;;;62.95;45.15;;;;;;;7.75;81.85;97123.66;4974392;28;20069;-75
2024/03/02 01:04:03;;;;;;;68.10;46.55;;;;;;;7.77;82.52;97124.22;4963693;28;20032;-75
2024/03/02 01:06:29;;;;;;;61.03;45.03;;;;;;;7.79;82.16;97124.81;4998331;28;20080;-76
2024/03/02 01:08:55;;;;;;;61.50;45.25;;;;;;;7.79;82.04;97130.16;4965405;28;20054;-76
2024/03/02 01:11:23;;;;;;;61.83;44.17;;;;;;;7.76;81.87;97119.94;4986591;28;20046;-76
2024/03/02 01:13:49;;;;;;;63.78;46.00;;;;;;;7.90;82.21;97141.78;4972351;28;20023;-77
2024/03/02 01:16:15;;;;;;;62.75;45.10;;;;;;;7.83;82.11;97131.25;4977669;28;20655;-77
2024/03/02 01:18:41;;;;;;;61.83;43.45;;;;;;;7.92;82.37;97135.09;4975889;28;20030;-76
2024/03/02 01:21:07;;;;;;;65.53;46.28;;;;;;;7.75;81.94;97102.22;4959953;28;20089;-76
2024/03/02 01:23:32;;;;;;;68.80;46.92;;;;;;;7.84;82.36;97116.00;4962042;28;20073;-76
2024/03/02 01:25:57;;;;;;;66.53;44.72;;;;;;;7.89;82.50;97124.09;4978168;28;20405;-76
2024/03/02 01:28:23;;;;;;;66.57;46.85;;;;;;;7.74;82.64;97089.91;4978978;28;20446;-76
2024/03/02 01:30:49;;;;;;;66.97;46.10;;;;;;;7.89;82.70;97114.16;4978073;28;20051;-75
2024/03/02 01:33:15;;;;;;;63.92;45.92;;;;;;;8.02;82.69;97137.88;4978184;28;20041;-75
2024/03/02 01:35:40;;;;;;;67.18;47.15;;;;;;;7.93;82.56;97125.19;4994636;28;20042;-74
2024/03/02 01:38:06;;;;;;;66.47;47.10;;;;;;;7.96;82.46;97124.69;4961996;28;20104;-75
2024/03/02 01:40:33;;;;;;;69.18;48.28;;;;;;;7.92;83.46;97121.69;4996304;28;20132;-76
2024/03/02 01:42:59;;;;;;;63.55;46.38;;;;;;;7.84;82.60;97114.09;4989341;28;20518;-76
2024/03/02 01:45:24;;;;;;;69.40;47.88;;;;;;;7.87;82.87;97126.19;4982236;28;20552;-76
2024/03/02 01:47:50;;;;;;;67.22;45.90;;;;;;;7.86;82.46;97125.41;4975229;23;20129;-76
2024/03/02 01:50:16;;;;;;;68.82;46.25;;;;;;;7.92;82.79;97135.09;4995541;28;20034;-75
2024/03/02 01:52:41;;;;;;;67.90;47.75;;;;;;;7.85;83.22;97129.13;5003737;28;20081;-76
2024/03/02 01:55:07;;;;;;;66.30;47.60;;;;;;;7.88;82.56;97143.91;4996095;28;20054;-76
2024/03/02 01:57:36;;;;;;;72.18;49.78;;;;;;;7.75;82.32;97123.66;5005640;28;20119;-75
2024/03/02 02:00:02;;;;;;;62.55;46.03;;;;;;;7.82;82.27;97145.72;4981717;28;20042;-75
2024/03/02 02:02:37;;;;;;;67.85;46.78;;;;;;;7.76;83.18;97141.38;4985221;28;20030;-76
2024/03/02 02:05:03;;;;;;;67.90;46.05;;;;;;;7.71;82.35;97125.25;4972411;28;20046;-76
2024/03/02 02:07:28;;;;;;;65.97;46.47;;;;;;;7.75;82.61;97134.38;4972402;28;20041;-76
2024/03/02 02:09:53;;;;;;;63.28;44.47;;;;;;;7.81;82.96;97143.28;4956326;28;20252;-76
2024/03/02 02:12:19;;;;;;;65.82;46.85;;;;;;;7.88;82.51;97155.44;4988370;28;20077;-74
2024/03/02 02:14:51;;;;;;;62.72;45.03;;;;;;;7.74;83.09;97122.06;4977741;28;20041;-74
2024/03/02 02:17:16;;;;;;;64.63;46.83;;;;;;;7.90;83.22;97142.59;4987059;28;20113;-76
2024/03/02 02:19:42;;;;;;;64.43;46.67;;;;;;;7.97;83.08;97145.06;4976294;28;20121;-75
2024/03/02 02:22:07;;;;;;;66.18;45.60;;;;;;;7.89;82.75;97130.25;4975033;28;20121;-76
2024/03/02 02:24:33;;;;;;;63.13;44.40;;;;;;;7.93;83.48;97126.00;4965923;28;20486;-76
2024/03/02 02:26:58;;;;;;;63.08;45.88;;;;;;;8.00;84.01;97137.34;4958720;28;20041;-75
2024/03/02 02:29:24;;;;;;;65.03;46.08;;;;;;;7.97;84.69;97127.13;4982988;28;20049;-75
2024/03/02 02:31:49;;;;;;;67.22;45.88;;;;;;;7.95;84.41;97129.25;4966685;28;20085;-76
2024/03/02 02:34:15;;;;;;;66.38;46.25;;;;;;;7.99;84.66;97124.97;4962819;28;20541;-75
2024/03/02 02:36:41;;;;;;;62.40;44.95;;;;;;;7.94;84.78;97118.75;4982832;28;20034;-76
2024/03/02 02:39:08;;;;;;;66.47;45.60;;;;;;;8.06;84.88;97133.63;4958751;28;20375;-76
2024/03/02 02:41:33;;;;;;;66.93;45.22;;;;;;;8.03;86.02;97122.59;4966491;28;20066;-75
2024/03/02 02:43:59;;;;;;;66.90;47.17;;;;;;;8.10;85.14;97131.22;4980238;28;20030;-75
2024/03/02 02:46:24;;;;;;;69.28;48.67;;;;;;;8.04;85.97;97114.31;4978430;28;20383;-76
2024/03/02 02:48:51;;;;;;;68.70;49.45;;;;;;;8.03;85.71;97112.69;4986650;28;20026;-75
2024/03/02 02:51:16;;;;;;;70.35;48.70;;;;;;;8.20;85.39;97128.66;4983184;28;20046;-76
2024/03/02 02:53:42;;;;;;;74.03;51.25;;;;;;;8.14;86.65;97114.41;4960003;28;20034;-75
2024/03/02 02:56:07;;;;;;;69.22;47.25;;;;;;;8.08;86.03;97102.00;4984426;28;20039;-76
2024/03/02 02:58:33;;;;;;;68.68;47.60;;;;;;;8.21;85.74;97120.34;4977036;28;20418;-76
2024/03/02 03:00:58;;;;;;;66.25;45.45;;;;;;;8.20;86.58;97126.78;4974083;28;20039;-75
2024/03/02 03:03:23;;;;;;;65.57;45.95;;;;;;;8.12;86.01;97102.31;4980091;28;20026;-75
2024/03/02 03:05:49;;;;;;;65.70;45.33;;;;;;;8.24;86.50;97119.03;4982543;28;20061;-75
2024/03/02 03:08:15;;;;;;;61.63;45.20;;;;;;;8.20;86.26;97102.66;4979663;28;20058;-75
2024/03/02 03:10:41;;;;;;;61.30;43.60;;;;;;;8.31;86.66;97123.16;4978221;28;20505;-76
2024/03/02 03:13:08;;;;;;;64.32;45.17;;;;;;;8.27;86.78;97111.31;4986947;28;20090;-75
2024/03/02 03:15:34;;;;;;;61.88;46.17;;;;;;;8.43;87.00;97135.56;4974840;28;20073;-75
2024/03/02 03:18:00;;;;;;;61.50;44.33;;;;;;;8.43;86.43;97130.19;4988015;28;20023;-75
2024/03/02 03:20:25;;;;;;;57.47;43.45;;;;;;;8.42;86.88;97133.97;4973799;28;20042;-75
2024/03/02 03:22:50;;;;;;;56.15;42.40;;;;;;;8.37;86.60;97125.88;4985520;28;20023;-76
2024/03/02 03:25:16;;;;;;;55.63;41.92;;;;;;;8.41;87.19;97121.59;4985374;28;20493;-75
2024/03/02 03:27:41;;;;;;;56.03;41.58;;;;;;;8.41;87.05;97121.59;4983545;28;20033;-75
2024/03/02 03:30:07;;;;;;;54.42;40.03;;;;;;;8.35;86.63;97107.38;4982879;28;20031;-75
2024/03/02 03:32:32;;;;;;;53.22;39.83;;;;;;;8.38;86.64;97103.38;4944813;28;20030;-75
2024/03/02 03:34:58;;;;;;;51.08;38.63;;;;;;;8.30;86.70;97094.72;4984354;28;20092;-76
2024/03/02 03:37:24;;;;;;;52.70;37.80;;;;;;;8.43;86.77;97103.38;4989871;28;20030;-77
2024/03/02 03:39:49;;;;;;;46.83;37.10;;;;;;;8.27;86.85;97084.50;4985453;28;20035;-78
2024/03/02 03:42:14;;;;;;;51.28;37.60;;;;;;;8.48;87.02;97111.47;4970330;28;20026;-77
2024/03/02 03:44:41;;;;;;;47.78;36.03;;;;;;;8.31;86.87;97074.88;4964210;28;20494;-77
2024/03/02 03:47:06;;;;;;;46.35;36.25;;;;;;;8.35;86.83;97086.69;4976298;28;20128;-78
2024/03/02 03:49:32;;;;;;;49.63;36.38;;;;;;;8.38;86.37;97089.94;4980219;28;20589;-77
2024/03/02 03:51:57;;;;;;;47.38;34.53;;;;;;;8.29;86.56;97082.38;4957861;28;20031;-79
2024/03/02 03:54:22;;;;;;;46.13;34.35;;;;;;;8.35;86.40;97092.06;4994163;28;20104;-75
2024/03/02 03:56:48;;;;;;;44.67;34.60;;;;;;;8.50;85.75;97114.69;4960897;28;20031;-75
2024/03/02 03:59:13;;;;;;;46.42;35.67;;;;;;;8.37;86.23;97088.31;4976556;28;20109;-73
2024/03/02 04:01:39;;;;;;;46.17;33.55;;;;;;;8.46;85.81;97100.19;4974987;28;20034;-75
2024/03/02 04:04:04;;;;;;;42.42;33.63;;;;;;;8.44;86.28;97096.97;4983975;28;20042;-75
2024/03/02 04:06:29;;;;;;;48.75;35.72;;;;;;;8.46;85.97;97097.50;4976283;28;20027;-75
2024/03/02 04:08:55;;;;;;;43.08;33.53;;;;;;;8.60;86.05;97125.50;4960796;28;20397;-75
2024/03/02 04:11:20;;;;;;;42.42;33.47;;;;;;;8.57;85.37;97126.84;4978910;28;20430;-76
2024/03/02 04:13:46;;;;;;;43.60;33.67;;;;;;;8.40;85.97;97107.41;4957723;28;20046;-77
2024/03/02 04:16:12;;;;;;;42.15;32.50;;;;;;;8.38;86.15;97106.03;4984894;28;20042;-76
2024/03/02 04:18:38;;;;;;;43.75;33.70;;;;;;;8.38;86.28;97106.84;4985478;28;20035;-76
2024/03/02 04:21:03;;;;;;;47.40;34.17;;;;;;;8.39;85.62;97102.28;4946021;28;20033;-74
2024/03/02 04:23:28;;;;;;;45.15;32.92;;;;;;;8.49;86.21;97129.19;4981854;28;20038;-75
2024/03/02 04:25:54;;;;;;;47.15;33.72;;;;;;;8.39;86.05;97107.66;4977945;28;20037;-76
2024/03/02 04:28:19;;;;;;;40.95;31.95;;;;;;;8.44;85.58;97118.41;4965135;28;20401;-74
2024/03/02 04:30:45;;;;;;;42.13;31.85;;;;;;;8.37;85.35;97120.50;4957620;28;20026;-75
2024/03/02 04:33:10;;;;;;;43.90;32.45;;;;;;;8.38;85.15;97119.47;4980318;28;20505;-75
2024/03/02 04:35:38;;;;;;;40.78;31.67;;;;;;;8.33;85.58;97115.66;4984622;28;20030;-75
2024/03/02 04:38:04;;;;;;;41.33;32.42;;;;;;;8.38;84.97;97132.88;4956536;28;20047;-75
2024/03/02 04:40:29;;;;;;;43.42;32.05;;;;;;;8.35;84.92;97132.28;4983393;28;20019;-75
2024/03/02 04:42:54;;;;;;;41.28;30.88;;;;;;;8.35;84.52;97134.97;4985316;28;20395;-75
2024/03/02 04:45:20;;;;;;;40.97;31.58;;;;;;;8.30;85.06;97134.97;4989919;28;20042;-75
2024/03/02 04:47:45;;;;;;;36.15;29.00;;;;;;;8.27;85.26;97137.31;4972262;28;20494;-75
2024/03/02 04:50:11;;;;;;;39.58;30.95;;;;;;;8.14;85.23;97125.13;4957146;28;20023;-76
2024/03/02 04:52:36;;;;;;;40.85;31.50;;;;;;;8.22;84.87;97145.28;4959216;28;20101;-76
2024/03/02 04:57:47;;;;;;;39.60;29.25;;;;;;;8.15;84.68;97134.78;4975409;28;20607;-75
2024/03/02 05:00:13;;;;;;;36.40;28.02;;;;;;;8.17;84.72;97138.00;4976224;28;20097;-75
2024/03/02 05:02:38;;;;;;;36.35;26.83;;;;;;;8.04;84.71;97126.91;4981673;28;20094;-76
2024/03/02 05:05:04;;;;;;;33.35;25.95;;;;;;;8.07;85.27;97140.63;4965091;28;20023;-76
2024/03/02 05:07:29;;;;;;;37.13;26.83;;;;;;;8.11;84.74;97144.41;4972671;28;20045;-75
2024/03/02 05:09:55;;;;;;;32.58;25.58;;;;;;;8.09;85.07;97140.34;4972966;28;20053;-76
2024/03/02 05:12:47;;;;;;;38.03;29.75;;;;;;;8.14;85.27;97160.00;4961030;28;20057;-76
2024/03/02 05:15:10;;;;;;;36.50;28.23;;;;;;;8.02;85.10;97134.41;4972314;28;20046;-76
2024/03/02 05:17:44;;;;;;;33.85;26.40;;;;;;;8.06;85.17;97152.41;4981075;28;20034;-76
2024/03/02 05:20:10;;;;;;;33.33;25.10;;;;;;;8.11;84.73;97160.50;4975719;28;20118;-76
2024/03/02 05:22:36;;;;;;;33.08;26.40;;;;;;;8.07;84.55;97143.31;4975624;28;20061;-76
2024/03/02 05:25:02;;;;;;;32.83;25.13;;;;;;;8.01;84.60;97148.84;4952895;28;20031;-76
2024/03/02 05:27:28;;;;;;;32.45;25.45;;;;;;;7.93;84.56;97131.38;4977936;28;20034;-76
2024/03/02 05:29:53;;;;;;;29.60;23.90;;;;;;;8.07;85.33;97159.38;4947992;28;20043;-75
2024/03/02 05:32:19;;;;;;;28.73;23.60;;;;;;;8.04;84.21;97164.44;4961796;28;20117;-75
2024/03/02 05:34:44;;;;;;;30.48;24.15;;;;;;;8.05;84.23;97156.13;4957928;28;20105;-76
2024/03/02 05:37:09;;;;;;;26.65;22.08;;;;;;;8.02;84.72;97156.66;4983553;28;20018;-75
2024/03/02 05:39:35;;;;;;;30.70;24.58;;;;;;;7.97;84.47;97148.56;4961166;28;20051;-77
2024/03/02 05:42:00;;;;;;;30.45;24.35;;;;;;;7.85;84.08;97129.13;4961024;28;20022;-76
2024/03/02 05:44:26;;;;;;;30.20;24.40;;;;;;;7.80;85.16;97130.94;4958293;28;20054;-76
2024/03/02 05:46:51;;;;;;;30.75;24.13;;;;;;;7.95;84.49;97158.72;4975716;28;20041;-76
2024/03/02 05:49:16;;;;;;;33.67;25.38;;;;;;;8.00;84.96;97161.47;4976229;28;20411;-75
2024/03/02 05:51:42;;;;;;;34.40;25.33;;;;;;;7.98;84.70;97166.25;4957098;28;20031;-76
2024/03/02 05:54:07;;;;;;;33.58;26.55;;;;;;;7.93;85.49;97168.91;4976344;28;20458;-76
2024/03/02 05:56:33;;;;;;;34.13;27.38;;;;;;;7.92;85.21;97155.72;4972326;28;20032;-74
2024/03/02 05:59:13;;;;;;;34.28;26.75;;;;;;;7.83;84.81;97141.97;4981740;28;20038;-76
2024/03/02 06:01:39;;;;;;;33.75;25.98;;;;;;;7.98;84.74;97171.59;4986268;28;20038;-76
2024/03/02 06:04:05;;;;;;;32.28;25.20;;;;;;;7.75;84.93;97139.75;4975939;28;20386;-76
2024/03/02 06:06:33;;;;;;;34.13;26.23;;;;;;;7.85;84.96;97155.94;4985276;28;20045;-76
2024/03/02 06:08:59;;;;;;;33.13;24.50;;;;;;;7.94;84.79;97164.31;4983827;28;20030;-76
2024/03/02 06:11:25;;;;;;;28.58;23.42;;;;;;;7.88;84.79;97160.81;4985380;28;20049;-76
2024/03/02 06:13:50;;;;;;;30.58;24.08;;;;;;;7.94;85.79;97170.50;4970205;28;20034;-76
2024/03/02 06:16:15;;;;;;;31.25;23.50;;;;;;;7.96;85.37;97163.00;4985435;28;20037;-76
2024/03/02 06:18:41;;;;;;;29.85;23.92;;;;;;;7.94;85.24;97164.31;4975390;28;20457;-75
2024/03/02 06:21:06;;;;;;;28.83;23.55;;;;;;;7.93;85.12;97170.75;4978674;28;20034;-76
2024/03/02 06:23:32;;;;;;;29.45;23.10;;;;;;;7.92;85.18;97167.28;4964530;28;20023;-75
2024/03/02 06:25:57;;;;;;;29.33;23.45;;;;;;;8.00;84.43;97182.09;4992265;28;20046;-76
2024/03/02 06:28:22;;;;;;;29.98;23.30;;;;;;;7.97;84.62;97175.38;4974779;28;20062;-76
2024/03/02 06:30:48;;;;;;;28.77;24.27;;;;;;;7.87;85.08;97164.53;4990773;28;20039;-76
2024/03/02 06:33:13;;;;;;;38.05;29.13;;;;;;;7.92;85.05;97164.59;4983474;28;20039;-75
2024/03/02 06:35:39;;;;;;;33.05;27.45;;;;;;;7.92;85.41;97178.00;4987033;28;20093;-75
2024/03/02 06:38:04;;;;;;;34.28;27.35;;;;;;;7.97;84.57;97179.91;4985606;28;20034;-76
2024/03/02 06:40:29;;;;;;;32.95;25.90;;;;;;;8.04;84.61;97185.88;4964372;28;20394;-76
2024/03/02 06:42:55;;;;;;;31.55;25.40;;;;;;;8.00;84.83;97187.47;4982950;28;20478;-76
2024/03/02 06:45:20;;;;;;;34.45;25.80;;;;;;;7.93;85.37;97173.44;4980413;28;20046;-76
2024/03/02 06:47:45;;;;;;;39.90;28.63;;;;;;;8.06;85.09;97189.94;4963474;28;20029;-76
2024/03/02 06:50:11;;;;;;;36.08;28.73;;;;;;;8.05;84.71;97188.31;4981069;28;20031;-76
2024/03/02 06:52:36;;;;;;;37.28;27.92;;;;;;;7.95;84.63;97166.78;4958257;28;20027;-76
2024/03/02 06:55:03;;;;;;;41.72;29.60;;;;;;;7.99;84.67;97173.25;4961964;28;20054;-75
2024/03/02 06:57:29;;;;;;;39.17;28.83;;;;;;;8.08;85.60;97189.66;4950253;28;20050;-76
2024/03/02 06:59:58;;;;;;;44.42;30.48;;;;;;;8.08;84.78;97182.44;4971077;28;20062;-76
2024/03/02 07:02:25;;;;;;;43.17;30.15;;;;;;;8.07;85.42;97180.84;4979583;28;20121;-76
2024/03/02 07:04:51;;;;;;;41.35;29.50;;;;;;;8.04;85.53;97178.66;4982157;28;20038;-76
2024/03/02 07:07:16;;;;;;;43.40;29.85;;;;;;;7.98;85.73;97171.59;4975337;28;20037;-76
2024/03/02 07:09:42;;;;;;;43.08;30.30;;;;;;;8.09;84.89;97176.03;4983303;28;20483;-76
2024/03/02 07:12:07;;;;;;;41.38;30.05;;;;;;;8.18;84.61;97193.28;4985568;28;20042;-76
2024/03/02 07:17:16;;;;;;;40.50;29.20;;;;;;;8.10;85.61;97163.41;4979022;28;20047;-75
2024/03/02 07:19:42;;;;;;;42.53;30.13;;;;;;;8.34;85.42;97197.75;4964845;28;20074;-74
2024/03/02 07:22:08;;;;;;;43.83;30.98;;;;;;;8.21;84.86;97163.25;4985110;28;20513;-76
2024/03/02 07:24:39;;;;;;;46.92;29.92;;;;;;;8.48;84.99;97197.31;4960321;28;20046;-76
2024/03/02 07:27:05;;;;;;;46.67;31.58;;;;;;;8.48;85.06;97191.97;4971852;28;20053;-76
2024/03/02 07:29:30;;;;;;;46.42;30.35;;;;;;;8.35;84.91;97177.91;4958601;28;20027;-76
2024/03/02 07:31:56;;;;;;;42.55;30.30;;;;;;;8.54;84.57;97194.41;4964990;28;20043;-76
2024/03/02 07:34:21;;;;;;;40.85;30.55;;;;;;;8.53;84.85;97178.59;4965328;28;20027;-76
2024/03/02 07:36:47;;;;;;;40.90;29.83;;;;;;;8.62;84.30;97185.91;4973374;28;20039;-76
2024/03/02 07:39:12;;;;;;;44.25;30.42;;;;;;;8.70;84.56;97190.81;4975312;28;20029;-76
2024/03/02 07:41:37;;;;;;;42.33;31.52;;;;;;;8.75;84.28;97182.00;4971475;28;20129;-76
2024/03/02 07:44:03;;;;;;;40.45;31.42;;;;;;;8.69;84.45;97183.00;4941505;28;20474;-76
2024/03/02 07:46:29;;;;;;;40.47;29.58;;;;;;;8.82;84.24;97190.63;4964988;28;20044;-75
2024/03/02 07:48:54;;;;;;;36.60;29.05;;;;;;;8.88;84.23;97182.34;4957324;28;20089;-76
2024/03/02 07:51:19;;;;;;;38.33;27.98;;;;;;;8.97;83.86;97196.09;4976298;28;20049;-76
2024/03/02 07:53:45;;;;;;;37.05;28.88;;;;;;;9.05;83.39;97195.63;4958753;28;20030;-76
2024/03/02 07:56:10;;;;;;;35.70;28.67;;;;;;;9.11;83.31;97201.81;4982482;28;20045;-75
2024/03/02 07:58:36;;;;;;;38.70;27.80;;;;;;;9.18;83.73;97192.47;4975579;28;20105;-75
2024/03/02 08:01:02;;;;;;;35.90;28.40;;;;;;;9.20;83.32;97192.19;4975104;28;20066;-76
2024/03/02 08:03:27;;;;;;;37.30;27.35;;;;;;;9.30;82.42;97198.47;4967714;28;20089;-76
2024/03/02 08:05:53;;;;;;;34.10;26.60;;;;;;;9.43;82.71;97200.66;4978667;28;20402;-76
2024/03/02 08:08:18;;;;;;;32.90;26.48;;;;;;;9.45;82.23;97209.25;4970982;28;20619;-74
2024/03/02 08:10:44;;;;;;;31.60;24.90;;;;;;;9.58;81.55;97214.19;5013404;23;20050;-75
2024/03/02 08:13:09;;;;;;;31.05;24.98;;;;;;;9.54;81.55;97209.59;4992068;28;20026;-75
2024/03/02 08:15:35;;;;;;;31.33;24.73;;;;;;;9.57;82.16;97201.81;4975296;28;20485;-75
2024/03/02 08:18:00;;;;;;;30.23;24.42;;;;;;;9.65;81.55;97203.19;4992110;28;20033;-75
2024/03/02 08:20:25;;;;;;;30.52;24.05;;;;;;;9.77;80.87;97213.72;4977234;28;20398;-75
2024/03/02 08:22:51;;;;;;;30.52;24.27;;;;;;;9.71;80.80;97197.56;4957165;28;20113;-76
2024/03/02 08:25:16;;;;;;;30.25;24.48;;;;;;;9.81;80.41;97207.56;4972327;28;20508;-76
2024/03/02 08:27:42;;;;;;;28.75;24.02;;;;;;;9.87;80.40;97205.69;4987279;28;20134;-76
2024/03/02 08:30:10;;;;;;;28.85;22.83;;;;;;;9.92;79.81;97211.88;4955936;28;20074;-76
2024/03/02 08:32:35;;;;;;;28.88;23.98;;;;;;;9.81;79.74;97193.28;4973581;28;20037;-77
2024/03/02 08:35:01;;;;;;;27.92;22.83;;;;;;;9.92;79.50;97192.28;4969130;28;20058;-76
2024/03/02 08:37:26;;;;;;;27.17;21.98;;;;;;;10.01;79.49;97209.50;4968402;28;20027;-76
2024/03/02 08:39:52;;;;;;;28.00;23.08;;;;;;;9.94;78.52;97180.16;4955794;28;20169;-74
2024/03/02 08:42:17;;;;;;;28.75;21.92;;;;;;;10.07;78.88;97203.88;4971218;28;20031;-74
2024/03/02 08:44:43;;;;;;;28.42;21.88;;;;;;;10.13;78.38;97204.72;4954690;28;20122;-75
2024/03/02 08:47:08;;;;;;;25.60;20.77;;;;;;;10.25;78.03;97221.41;4963992;28;20093;-75
2024/03/02 08:49:35;;;;;;;24.52;20.48;;;;;;;10.19;78.48;97204.47;4971671;28;20557;-75
2024/03/02 08:52:00;;;;;;;22.02;19.27;;;;;;;10.33;77.79;97210.16;4970611;28;20035;-74
2024/03/02 08:54:25;;;;;;;25.40;20.30;;;;;;;10.30;77.83;97206.09;4960511;28;20042;-74
2024/03/02 08:56:51;;;;;;;23.67;17.85;;;;;;;10.33;77.48;97199.38;4973283;28;20031;-76
2024/03/02 08:59:16;;;;;;;22.10;18.08;;;;;;;10.48;77.31;97210.16;4977098;28;20089;-77
2024/03/02 09:01:42;;;;;;;23.52;19.13;;;;;;;10.45;76.50;97197.25;4971503;28;20076;-76
2024/03/02 09:04:10;;;;;;;22.38;17.60;;;;;;;10.50;76.25;97210.72;4988266;28;20130;-76
2024/03/02 09:06:36;;;;;;;26.52;17.58;;;;;;;10.50;76.11;97205.34;4940088;28;20018;-77
2024/03/02 09:09:01;;;;;;;23.05;18.48;;;;;;;10.49;75.90;97198.31;4971705;28;20057;-76
2024/03/02 09:11:26;;;;;;;22.65;18.00;;;;;;;10.43;75.76;97194.81;4986047;28;20039;-77
2024/03/02 09:13:53;;;;;;;25.33;18.45;;;;;;;10.56;75.73;97204.25;4971977;28;20398;-77
2024/03/02 09:16:18;;;;;;;20.10;17.05;;;;;;;10.62;75.22;97192.41;4957405;28;20089;-77
2024/03/02 09:18:43;;;;;;;24.17;18.20;;;;;;;10.68;75.07;97193.22;4981030;28;20045;-76
2024/03/02 09:21:10;;;;;;;25.38;19.60;;;;;;;10.68;75.41;97201.28;4940778;28;20051;-77
2024/03/02 09:23:35;;;;;;;24.60;18.75;;;;;;;10.81;75.16;97206.94;4957076;28;20039;-76
2024/03/02 09:26:00;;;;;;;19.60;16.65;;;;;;;10.73;74.57;97199.41;4954479;28;20134;-77
2024/03/02 09:28:26;;;;;;;21.33;16.20;;;;;;;10.90;74.42;97218.78;4972905;28;20590;-76
2024/03/02 09:30:51;;;;;;;19.00;15.38;;;;;;;10.92;73.91;97208.56;4968938;28;20081;-77
2024/03/02 09:33:17;;;;;;;20.83;15.77;;;;;;;10.81;74.41;97185.41;4975807;28;20105;-77
2024/03/02 09:35:42;;;;;;;17.45;14.10;;;;;;;10.97;73.60;97205.84;4974300;28;20113;-76
2024/03/02 09:38:07;;;;;;;19.70;15.43;;;;;;;11.15;73.67;97228.75;4969191;28;20039;-76
2024/03/02 09:40:33;;;;;;;18.05;13.73;;;;;;;11.23;72.18;97213.91;4974163;28;20517;-76
2024/03/02 09:42:58;;;;;;;19.90;14.30;;;;;;;11.18;72.73;97211.25;4955985;28;20039;-77
2024/03/02 09:45:25;;;;;;;19.13;14.05;;;;;;;11.31;73.08;97221.44;4942628;28;20033;-77
2024/03/02 09:47:51;;;;;;;20.63;13.95;;;;;;;11.33;72.02;97211.19;4972003;28;20038;-75
2024/03/02 09:50:17;;;;;;;17.92;13.65;;;;;;;11.32;71.68;97201.50;4952937;28;20110;-74
2024/03/02 09:52:42;;;;;;;17.83;13.68;;;;;;;11.43;71.76;97217.38;4977044;28;20478;-76
2024/03/02 09:55:08;;;;;;;17.75;13.70;;;;;;;11.34;72.55;97215.50;4964092;28;20109;-76
2024/03/02 09:57:33;;;;;;;17.02;14.00;;;;;;;11.37;72.45;97210.38;4953845;28;20039;-76
2024/03/02 09:59:59;;;;;;;15.45;13.10;;;;;;;11.34;72.00;97185.88;4941287;28;20534;-74
2024/03/02 10:02:24;;;;;;;17.50;13.88;;;;;;;11.45;71.95;97182.06;4957208;28;20035;-74
2024/03/02 10:04:50;;;;;;;16.95;12.30;;;;;;;11.56;71.75;97191.72;4956262;28;20486;-76
2024/03/02 10:07:17;;;;;;;16.30;13.65;;;;;;;11.61;70.77;97205.19;4956784;28;20043;-74
2024/03/02 10:09:44;;;;;;;16.65;13.50;;;;;;;11.77;69.96;97209.47;4970764;28;20030;-76
2024/03/02 10:12:12;;;;;;;18.15;13.00;;;;;;;11.77;70.27;97214.88;4967074;28;20042;-76
2024/03/02 10:14:37;;;;;;;17.10;13.43;;;;;;;11.72;70.81;97196.81;4989608;28;20178;-76
2024/03/02 10:17:04;;;;;;;15.02;12.05;;;;;;;11.89;69.75;97218.06;4969796;28;20658;-76
2024/03/02 10:19:34;;;;;;;16.02;12.77;;;;;;;11.86;69.49;97205.09;4988011;28;20541;-77
2024/03/02 10:22:01;;;;;;;15.57;12.48;;;;;;;11.34;69.77;97110.38;4981672;28;20031;-77
2024/03/02 10:24:26;;;;;;;16.00;12.68;;;;;;;11.79;69.50;97174.94;4972391;28;20034;-77
2024/03/02 10:26:52;;;;;;;15.00;12.90;;;;;;;12.02;69.63;97211.25;4972181;28;20043;-77
2024/03/02 10:29:18;;;;;;;15.85;13.18;;;;;;;12.02;69.87;97203.94;4972283;28;20023;-77
2024/03/02 10:31:45;;;;;;;16.25;12.43;;;;;;;12.12;69.42;97209.31;4957979;28;20713;-77
2024/03/02 10:34:11;;;;;;;14.63;11.15;;;;;;;11.69;69.59;97123.75;4959281;28;20109;-77
2024/03/02 10:36:38;;;;;;;18.13;12.77;;;;;;;12.29;68.60;97212.47;4956793;28;20640;-76
2024/03/02 10:39:05;;;;;;;15.27;12.73;;;;;;;12.36;68.74;97207.56;4972426;28;20022;-76
2024/03/02 10:41:33;;;;;;;13.98;10.88;;;;;;;12.24;68.59;97193.59;4956034;28;20139;-77
2024/03/02 10:43:59;;;;;;;14.80;11.18;;;;;;;12.36;68.01;97180.56;4975014;28;20065;-77
2024/03/02 10:46:30;;;;;;;13.57;10.20;;;;;;;12.59;68.19;97202.53;4975139;28;20034;-77
2024/03/02 10:48:59;;;;;;;12.82;10.63;;;;;;;12.52;67.24;97183.13;4945819;28;20041;-76
2024/03/02 10:51:31;;;;;;;12.15;9.75;;;;;;;12.51;66.66;97176.13;4963868;28;20034;-77
2024/03/02 10:53:57;;;;;;;13.40;10.32;;;;;;;12.67;66.44;97183.03;4957267;28;20042;-77
2024/03/02 10:56:34;;;;;;;11.25;9.85;;;;;;;12.69;66.16;97194.34;4990958;28;20148;-77
2024/03/02 10:59:03;;;;;;;16.50;11.52;;;;;;;12.60;66.36;97169.03;4990683;28;20031;-77
2024/03/02 11:01:30;;;;;;;14.48;12.07;;;;;;;12.79;66.08;97189.66;4987391;28;20467;-77
2024/03/02 11:03:56;;;;;;;12.02;9.70;;;;;;;12.69;65.67;97172.75;4964084;28;20039;-77
2024/03/02 11:06:22;;;;;;;15.55;10.50;;;;;;;12.83;65.78;97179.13;4958518;28;20857;-77
2024/03/02 11:08:49;;;;;;;14.30;11.00;;;;;;;12.86;66.29;97178.56;4961904;28;20031;-77
2024/03/02 11:11:16;;;;;;;12.18;10.02;;;;;;;12.97;65.75;97182.78;4974373;28;20110;-77
2024/03/02 11:13:47;;;;;;;12.63;10.50;;;;;;;13.02;65.24;97171.91;4974829;28;20043;-77
2024/03/02 11:16:23;;;;;;;11.52;10.20;;;;;;;13.02;64.68;97161.88;4942660;28;20034;-77
2024/03/02 11:18:49;;;;;;;14.27;10.25;;;;;;;13.19;64.74;97172.31;4990905;28;20042;-77
2024/03/02 11:21:15;;;;;;;14.60;9.65;;;;;;;13.11;64.55;97148.63;4942280;28;20052;-77
2024/03/02 11:23:40;;;;;;;13.82;10.05;;;;;;;13.18;64.73;97149.09;4958203;28;20181;-77
2024/03/02 11:26:23;;;;;;;16.85;9.27;;;;;;;13.24;64.22;97156.03;4959563;28;20518;-77